sensor_id;sensor_type;location;lat;lon;timestamp;P1;durP1;ratioP1;P2;durP2;ratioP2
39846;SDS011;25517;52.422;10.782;2023-07-30T00:01:51;3.25;;;2.40;;
39846;SDS011;25517;52.422;10.782;2023-07-30T00:04:16;4.00;;;2.30;;
39846;SDS011;25517;52.422;10.782;2023-07-30T00:06:42;2.80;;;2.22;;
39846;SDS011;25517;52.422;10.782;2023-07-30T00:09:07;3.55;;;2.53;;
39846;SDS011;25517;52.422;10.782;2023-07-30T00:11:33;3.83;;;2.20;;
39846;SDS011;25517;52.422;10.782;2023-07-30T00:13:58;3.38;;;2.88;;
39846;SDS011;25517;52.422;10.782;2023-07-30T00:16:25;4.18;;;2.80;;
39846;SDS011;25517;52.422;10.782;2023-07-30T00:18:51;7.78;;;2.50;;
39846;SDS011;25517;52.422;10.782;2023-07-30T00:21:16;2.92;;;2.42;;
39846;SDS011;25517;52.422;10.782;2023-07-30T00:23:42;3.08;;;2.38;;
39846;SDS011;25517;52.422;10.782;2023-07-30T00:26:07;2.58;;;2.33;;
39846;SDS011;25517;52.422;10.782;2023-07-30T00:28:33;3.00;;;2.30;;
39846;SDS011;25517;52.422;10.782;2023-07-30T00:30:58;2.70;;;2.28;;
39846;SDS011;25517;52.422;10.782;2023-07-30T00:33:24;6.97;;;2.67;;
39846;SDS011;25517;52.422;10.782;2023-07-30T00:35:53;3.05;;;2.50;;
39846;SDS011;25517;52.422;10.782;2023-07-30T00:38:19;3.38;;;2.58;;
39846;SDS011;25517;52.422;10.782;2023-07-30T00:40:44;3.33;;;2.00;;
39846;SDS011;25517;52.422;10.782;2023-07-30T00:43:10;2.42;;;2.00;;
39846;SDS011;25517;52.422;10.782;2023-07-30T00:45:36;2.85;;;2.08;;
39846;SDS011;25517;52.422;10.782;2023-07-30T00:48:03;2.40;;;2.20;;
39846;SDS011;25517;52.422;10.782;2023-07-30T00:50:29;4.75;;;2.22;;
39846;SDS011;25517;52.422;10.782;2023-07-30T00:52:55;4.35;;;2.17;;
39846;SDS011;25517;52.422;10.782;2023-07-30T00:55:21;2.40;;;2.08;;
39846;SDS011;25517;52.422;10.782;2023-07-30T00:57:46;2.38;;;2.17;;
39846;SDS011;25517;52.422;10.782;2023-07-30T01:00:13;2.33;;;2.00;;
39846;SDS011;25517;52.422;10.782;2023-07-30T01:02:39;3.28;;;2.10;;
39846;SDS011;25517;52.422;10.782;2023-07-30T01:05:04;4.43;;;2.25;;
39846;SDS011;25517;52.422;10.782;2023-07-30T01:07:30;2.78;;;2.20;;
39846;SDS011;25517;52.422;10.782;2023-07-30T01:09:56;5.32;;;2.40;;
39846;SDS011;25517;52.422;10.782;2023-07-30T01:12:22;2.40;;;1.80;;
39846;SDS011;25517;52.422;10.782;2023-07-30T01:14:48;5.00;;;1.98;;
39846;SDS011;25517;52.422;10.782;2023-07-30T01:17:15;2.80;;;2.38;;
39846;SDS011;25517;52.422;10.782;2023-07-30T01:19:41;3.00;;;2.30;;
39846;SDS011;25517;52.422;10.782;2023-07-30T01:22:06;3.10;;;2.20;;
39846;SDS011;25517;52.422;10.782;2023-07-30T01:24:32;2.65;;;2.20;;
39846;SDS011;25517;52.422;10.782;2023-07-30T01:27:01;2.78;;;2.25;;
39846;SDS011;25517;52.422;10.782;2023-07-30T01:29:35;4.35;;;2.08;;
39846;SDS011;25517;52.422;10.782;2023-07-30T01:32:07;3.22;;;2.20;;
39846;SDS011;25517;52.422;10.782;2023-07-30T01:34:35;3.05;;;2.25;;
39846;SDS011;25517;52.422;10.782;2023-07-30T01:37:02;5.15;;;2.25;;
39846;SDS011;25517;52.422;10.782;2023-07-30T01:39:30;3.08;;;2.72;;
39846;SDS011;25517;52.422;10.782;2023-07-30T01:41:57;3.22;;;2.40;;
39846;SDS011;25517;52.422;10.782;2023-07-30T01:44:23;3.70;;;2.33;;
39846;SDS011;25517;52.422;10.782;2023-07-30T01:46:48;2.70;;;2.03;;
39846;SDS011;25517;52.422;10.782;2023-07-30T01:49:14;3.20;;;2.53;;
39846;SDS011;25517;52.422;10.782;2023-07-30T01:51:39;3.90;;;2.38;;
39846;SDS011;25517;52.422;10.782;2023-07-30T01:54:05;3.83;;;2.80;;
39846;SDS011;25517;52.422;10.782;2023-07-30T01:56:30;5.65;;;2.70;;
39846;SDS011;25517;52.422;10.782;2023-07-30T01:58:56;3.10;;;2.30;;
39846;SDS011;25517;52.422;10.782;2023-07-30T02:01:21;4.30;;;2.75;;
39846;SDS011;25517;52.422;10.782;2023-07-30T02:03:47;2.70;;;2.47;;
39846;SDS011;25517;52.422;10.782;2023-07-30T02:06:13;4.40;;;2.35;;
39846;SDS011;25517;52.422;10.782;2023-07-30T02:08:39;5.28;;;2.42;;
39846;SDS011;25517;52.422;10.782;2023-07-30T02:11:04;2.60;;;2.38;;
39846;SDS011;25517;52.422;10.782;2023-07-30T02:13:30;3.38;;;2.53;;
39846;SDS011;25517;52.422;10.782;2023-07-30T02:15:55;4.80;;;2.85;;
39846;SDS011;25517;52.422;10.782;2023-07-30T02:18:21;2.90;;;2.50;;
39846;SDS011;25517;52.422;10.782;2023-07-30T02:20:46;2.83;;;2.60;;
39846;SDS011;25517;52.422;10.782;2023-07-30T02:23:13;3.63;;;2.35;;
39846;SDS011;25517;52.422;10.782;2023-07-30T02:25:40;2.78;;;2.50;;
39846;SDS011;25517;52.422;10.782;2023-07-30T02:28:05;5.05;;;2.67;;
39846;SDS011;25517;52.422;10.782;2023-07-30T02:30:32;3.17;;;2.70;;
39846;SDS011;25517;52.422;10.782;2023-07-30T02:32:58;3.47;;;2.65;;
39846;SDS011;25517;52.422;10.782;2023-07-30T02:35:24;5.60;;;2.78;;
39846;SDS011;25517;52.422;10.782;2023-07-30T02:37:49;6.75;;;2.88;;
39846;SDS011;25517;52.422;10.782;2023-07-30T02:40:15;2.70;;;2.47;;
39846;SDS011;25517;52.422;10.782;2023-07-30T02:42:40;3.85;;;2.70;;
39846;SDS011;25517;52.422;10.782;2023-07-30T02:45:06;3.97;;;2.58;;
39846;SDS011;25517;52.422;10.782;2023-07-30T02:47:32;3.05;;;2.53;;
39846;SDS011;25517;52.422;10.782;2023-07-30T02:49:57;5.13;;;3.30;;
39846;SDS011;25517;52.422;10.782;2023-07-30T02:52:22;2.90;;;2.65;;
39846;SDS011;25517;52.422;10.782;2023-07-30T02:54:48;3.33;;;3.03;;
39846;SDS011;25517;52.422;10.782;2023-07-30T02:57:13;6.88;;;2.92;;
39846;SDS011;25517;52.422;10.782;2023-07-30T02:59:39;4.07;;;3.25;;
39846;SDS011;25517;52.422;10.782;2023-07-30T03:02:05;4.53;;;3.10;;
39846;SDS011;25517;52.422;10.782;2023-07-30T03:04:31;3.17;;;2.88;;
39846;SDS011;25517;52.422;10.782;2023-07-30T03:07:16;3.63;;;2.97;;
39846;SDS011;25517;52.422;10.782;2023-07-30T03:09:43;7.32;;;3.00;;
39846;SDS011;25517;52.422;10.782;2023-07-30T03:12:08;3.92;;;2.90;;
39846;SDS011;25517;52.422;10.782;2023-07-30T03:14:34;4.57;;;3.20;;
39846;SDS011;25517;52.422;10.782;2023-07-30T03:16:59;5.75;;;3.95;;
39846;SDS011;25517;52.422;10.782;2023-07-30T03:19:25;6.10;;;3.20;;
39846;SDS011;25517;52.422;10.782;2023-07-30T03:21:50;3.63;;;3.33;;
39846;SDS011;25517;52.422;10.782;2023-07-30T03:24:16;3.80;;;3.35;;
39846;SDS011;25517;52.422;10.782;2023-07-30T03:26:41;4.05;;;3.65;;
39846;SDS011;25517;52.422;10.782;2023-07-30T03:29:07;5.03;;;3.20;;
39846;SDS011;25517;52.422;10.782;2023-07-30T03:31:32;4.57;;;3.40;;
39846;SDS011;25517;52.422;10.782;2023-07-30T03:33:58;6.20;;;4.00;;
39846;SDS011;25517;52.422;10.782;2023-07-30T03:36:23;4.50;;;3.45;;
39846;SDS011;25517;52.422;10.782;2023-07-30T03:38:49;5.00;;;3.83;;
39846;SDS011;25517;52.422;10.782;2023-07-30T03:41:14;5.07;;;3.55;;
39846;SDS011;25517;52.422;10.782;2023-07-30T03:43:40;4.10;;;3.70;;
39846;SDS011;25517;52.422;10.782;2023-07-30T03:46:05;4.45;;;3.97;;
39846;SDS011;25517;52.422;10.782;2023-07-30T03:48:31;4.10;;;3.40;;
39846;SDS011;25517;52.422;10.782;2023-07-30T03:50:56;5.45;;;4.18;;
39846;SDS011;25517;52.422;10.782;2023-07-30T03:53:22;3.70;;;3.25;;
39846;SDS011;25517;52.422;10.782;2023-07-30T03:55:48;3.55;;;3.25;;
39846;SDS011;25517;52.422;10.782;2023-07-30T03:58:13;3.95;;;3.53;;
39846;SDS011;25517;52.422;10.782;2023-07-30T04:00:39;5.55;;;3.60;;
39846;SDS011;25517;52.422;10.782;2023-07-30T04:03:05;9.35;;;4.25;;
39846;SDS011;25517;52.422;10.782;2023-07-30T04:05:30;6.20;;;3.80;;
39846;SDS011;25517;52.422;10.782;2023-07-30T04:07:56;4.88;;;3.42;;
39846;SDS011;25517;52.422;10.782;2023-07-30T04:10:22;3.95;;;3.35;;
39846;SDS011;25517;52.422;10.782;2023-07-30T04:12:47;4.00;;;2.97;;
39846;SDS011;25517;52.422;10.782;2023-07-30T04:15:14;4.65;;;3.33;;
39846;SDS011;25517;52.422;10.782;2023-07-30T04:17:40;5.57;;;3.65;;
39846;SDS011;25517;52.422;10.782;2023-07-30T04:20:06;4.25;;;3.85;;
39846;SDS011;25517;52.422;10.782;2023-07-30T04:22:34;11.20;;;3.60;;
39846;SDS011;25517;52.422;10.782;2023-07-30T04:25:00;4.05;;;3.55;;
39846;SDS011;25517;52.422;10.782;2023-07-30T04:27:25;4.22;;;3.50;;
39846;SDS011;25517;52.422;10.782;2023-07-30T04:29:51;3.83;;;3.08;;
39846;SDS011;25517;52.422;10.782;2023-07-30T04:32:16;9.70;;;3.35;;
39846;SDS011;25517;52.422;10.782;2023-07-30T04:34:42;6.70;;;3.90;;
39846;SDS011;25517;52.422;10.782;2023-07-30T04:37:07;8.40;;;3.33;;
39846;SDS011;25517;52.422;10.782;2023-07-30T04:39:33;7.80;;;3.20;;
39846;SDS011;25517;52.422;10.782;2023-07-30T04:41:59;5.60;;;3.08;;
39846;SDS011;25517;52.422;10.782;2023-07-30T04:44:25;8.88;;;3.72;;
39846;SDS011;25517;52.422;10.782;2023-07-30T04:46:50;13.63;;;3.38;;
39846;SDS011;25517;52.422;10.782;2023-07-30T04:49:16;4.28;;;2.85;;
39846;SDS011;25517;52.422;10.782;2023-07-30T04:51:42;3.67;;;2.40;;
39846;SDS011;25517;52.422;10.782;2023-07-30T04:54:07;4.03;;;3.25;;
39846;SDS011;25517;52.422;10.782;2023-07-30T04:56:33;9.02;;;3.28;;
39846;SDS011;25517;52.422;10.782;2023-07-30T04:58:58;4.90;;;3.03;;
39846;SDS011;25517;52.422;10.782;2023-07-30T05:01:24;4.95;;;3.20;;
39846;SDS011;25517;52.422;10.782;2023-07-30T05:03:50;8.05;;;3.67;;
39846;SDS011;25517;52.422;10.782;2023-07-30T05:06:15;6.85;;;3.50;;
39846;SDS011;25517;52.422;10.782;2023-07-30T05:08:41;6.40;;;3.40;;
39846;SDS011;25517;52.422;10.782;2023-07-30T05:11:06;6.40;;;3.38;;
39846;SDS011;25517;52.422;10.782;2023-07-30T05:13:32;5.68;;;3.10;;
39846;SDS011;25517;52.422;10.782;2023-07-30T05:15:58;5.10;;;3.20;;
39846;SDS011;25517;52.422;10.782;2023-07-30T05:18:23;9.23;;;3.40;;
39846;SDS011;25517;52.422;10.782;2023-07-30T05:20:49;8.68;;;2.90;;
39846;SDS011;25517;52.422;10.782;2023-07-30T05:23:14;8.35;;;2.90;;
39846;SDS011;25517;52.422;10.782;2023-07-30T05:25:40;6.72;;;3.38;;
39846;SDS011;25517;52.422;10.782;2023-07-30T05:28:06;5.18;;;3.03;;
39846;SDS011;25517;52.422;10.782;2023-07-30T05:30:31;9.15;;;3.63;;
39846;SDS011;25517;52.422;10.782;2023-07-30T05:32:57;5.88;;;2.58;;
39846;SDS011;25517;52.422;10.782;2023-07-30T05:35:22;4.93;;;3.33;;
39846;SDS011;25517;52.422;10.782;2023-07-30T05:37:48;8.73;;;4.18;;
39846;SDS011;25517;52.422;10.782;2023-07-30T05:40:13;6.97;;;3.30;;
39846;SDS011;25517;52.422;10.782;2023-07-30T05:42:39;8.27;;;3.50;;
39846;SDS011;25517;52.422;10.782;2023-07-30T05:45:04;6.00;;;2.92;;
39846;SDS011;25517;52.422;10.782;2023-07-30T05:47:30;5.90;;;3.38;;
39846;SDS011;25517;52.422;10.782;2023-07-30T05:49:56;10.23;;;3.28;;
39846;SDS011;25517;52.422;10.782;2023-07-30T05:52:21;8.55;;;3.05;;
39846;SDS011;25517;52.422;10.782;2023-07-30T05:54:47;8.35;;;3.10;;
39846;SDS011;25517;52.422;10.782;2023-07-30T05:57:12;8.00;;;2.85;;
39846;SDS011;25517;52.422;10.782;2023-07-30T05:59:38;5.70;;;3.10;;
39846;SDS011;25517;52.422;10.782;2023-07-30T06:02:04;6.30;;;3.17;;
39846;SDS011;25517;52.422;10.782;2023-07-30T06:04:30;10.05;;;3.47;;
39846;SDS011;25517;52.422;10.782;2023-07-30T06:06:55;4.25;;;3.20;;
39846;SDS011;25517;52.422;10.782;2023-07-30T06:09:22;8.98;;;3.40;;
39846;SDS011;25517;52.422;10.782;2023-07-30T06:11:48;9.45;;;4.10;;
39846;SDS011;25517;52.422;10.782;2023-07-30T06:14:14;7.90;;;3.83;;
39846;SDS011;25517;52.422;10.782;2023-07-30T06:16:39;6.93;;;4.03;;
39846;SDS011;25517;52.422;10.782;2023-07-30T06:19:05;8.23;;;4.65;;
39846;SDS011;25517;52.422;10.782;2023-07-30T06:21:30;8.32;;;5.00;;
39846;SDS011;25517;52.422;10.782;2023-07-30T06:23:56;7.97;;;4.40;;
39846;SDS011;25517;52.422;10.782;2023-07-30T06:26:21;11.75;;;4.82;;
39846;SDS011;25517;52.422;10.782;2023-07-30T06:28:47;9.32;;;4.82;;
39846;SDS011;25517;52.422;10.782;2023-07-30T06:31:12;15.02;;;5.40;;
39846;SDS011;25517;52.422;10.782;2023-07-30T06:33:38;15.63;;;5.90;;
39846;SDS011;25517;52.422;10.782;2023-07-30T06:36:03;9.38;;;5.43;;
39846;SDS011;25517;52.422;10.782;2023-07-30T06:38:29;10.77;;;5.10;;
39846;SDS011;25517;52.422;10.782;2023-07-30T06:40:54;7.18;;;4.82;;
39846;SDS011;25517;52.422;10.782;2023-07-30T06:43:22;6.82;;;4.80;;
39846;SDS011;25517;52.422;10.782;2023-07-30T06:45:48;9.15;;;4.68;;
39846;SDS011;25517;52.422;10.782;2023-07-30T06:48:14;11.70;;;5.38;;
39846;SDS011;25517;52.422;10.782;2023-07-30T06:50:40;12.90;;;5.45;;
39846;SDS011;25517;52.422;10.782;2023-07-30T06:53:06;11.02;;;5.20;;
39846;SDS011;25517;52.422;10.782;2023-07-30T06:55:32;13.18;;;5.82;;
39846;SDS011;25517;52.422;10.782;2023-07-30T06:57:57;9.52;;;4.60;;
39846;SDS011;25517;52.422;10.782;2023-07-30T07:00:23;9.38;;;5.18;;
39846;SDS011;25517;52.422;10.782;2023-07-30T07:02:48;8.75;;;4.70;;
39846;SDS011;25517;52.422;10.782;2023-07-30T07:05:14;8.00;;;4.78;;
39846;SDS011;25517;52.422;10.782;2023-07-30T07:07:40;8.93;;;4.90;;
39846;SDS011;25517;52.422;10.782;2023-07-30T07:10:05;10.60;;;4.70;;
39846;SDS011;25517;52.422;10.782;2023-07-30T07:12:31;7.57;;;4.55;;
39846;SDS011;25517;52.422;10.782;2023-07-30T07:14:57;9.38;;;4.45;;
39846;SDS011;25517;52.422;10.782;2023-07-30T07:17:23;11.02;;;4.93;;
39846;SDS011;25517;52.422;10.782;2023-07-30T07:19:49;9.95;;;4.40;;
39846;SDS011;25517;52.422;10.782;2023-07-30T07:22:15;12.63;;;4.47;;
39846;SDS011;25517;52.422;10.782;2023-07-30T07:24:42;10.48;;;4.57;;
39846;SDS011;25517;52.422;10.782;2023-07-30T07:27:09;8.10;;;4.63;;
39846;SDS011;25517;52.422;10.782;2023-07-30T07:29:34;9.63;;;4.80;;
39846;SDS011;25517;52.422;10.782;2023-07-30T07:32:00;10.50;;;5.00;;
39846;SDS011;25517;52.422;10.782;2023-07-30T07:34:25;8.38;;;4.88;;
39846;SDS011;25517;52.422;10.782;2023-07-30T07:36:51;12.85;;;4.45;;
39846;SDS011;25517;52.422;10.782;2023-07-30T07:39:17;7.95;;;4.38;;
39846;SDS011;25517;52.422;10.782;2023-07-30T07:41:43;10.65;;;4.15;;
39846;SDS011;25517;52.422;10.782;2023-07-30T07:44:08;8.20;;;4.38;;
39846;SDS011;25517;52.422;10.782;2023-07-30T07:46:34;9.25;;;4.05;;
39846;SDS011;25517;52.422;10.782;2023-07-30T07:48:59;7.82;;;4.25;;
39846;SDS011;25517;52.422;10.782;2023-07-30T07:51:25;7.88;;;3.55;;
39846;SDS011;25517;52.422;10.782;2023-07-30T07:53:50;9.95;;;3.75;;
39846;SDS011;25517;52.422;10.782;2023-07-30T07:56:16;9.20;;;3.53;;
39846;SDS011;25517;52.422;10.782;2023-07-30T07:58:41;7.20;;;4.13;;
39846;SDS011;25517;52.422;10.782;2023-07-30T08:01:08;7.07;;;3.50;;
39846;SDS011;25517;52.422;10.782;2023-07-30T08:03:33;8.40;;;3.63;;
39846;SDS011;25517;52.422;10.782;2023-07-30T08:05:59;6.05;;;3.47;;
39846;SDS011;25517;52.422;10.782;2023-07-30T08:08:25;5.03;;;3.08;;
39846;SDS011;25517;52.422;10.782;2023-07-30T08:10:51;6.97;;;3.00;;
39846;SDS011;25517;52.422;10.782;2023-07-30T08:13:16;5.85;;;3.08;;
39846;SDS011;25517;52.422;10.782;2023-07-30T08:15:42;10.18;;;2.97;;
39846;SDS011;25517;52.422;10.782;2023-07-30T08:18:08;5.00;;;2.00;;
39846;SDS011;25517;52.422;10.782;2023-07-30T08:20:33;4.20;;;2.42;;
39846;SDS011;25517;52.422;10.782;2023-07-30T08:22:59;7.65;;;2.45;;
39846;SDS011;25517;52.422;10.782;2023-07-30T08:25:25;3.88;;;2.15;;
39846;SDS011;25517;52.422;10.782;2023-07-30T08:27:51;4.80;;;2.53;;
39846;SDS011;25517;52.422;10.782;2023-07-30T08:30:16;3.88;;;2.00;;
39846;SDS011;25517;52.422;10.782;2023-07-30T08:32:42;3.95;;;2.10;;
39846;SDS011;25517;52.422;10.782;2023-07-30T08:35:08;5.43;;;2.00;;
39846;SDS011;25517;52.422;10.782;2023-07-30T08:37:34;3.03;;;2.15;;
39846;SDS011;25517;52.422;10.782;2023-07-30T08:40:00;3.53;;;1.88;;
39846;SDS011;25517;52.422;10.782;2023-07-30T08:42:25;4.93;;;1.88;;
39846;SDS011;25517;52.422;10.782;2023-07-30T08:44:51;5.53;;;1.95;;
39846;SDS011;25517;52.422;10.782;2023-07-30T08:47:16;2.80;;;1.80;;
39846;SDS011;25517;52.422;10.782;2023-07-30T08:49:42;3.55;;;1.88;;
39846;SDS011;25517;52.422;10.782;2023-07-30T08:52:08;5.57;;;1.98;;
39846;SDS011;25517;52.422;10.782;2023-07-30T08:54:34;3.72;;;1.85;;
39846;SDS011;25517;52.422;10.782;2023-07-30T08:57:02;3.50;;;1.40;;
39846;SDS011;25517;52.422;10.782;2023-07-30T08:59:30;4.65;;;1.60;;
39846;SDS011;25517;52.422;10.782;2023-07-30T09:02:01;4.43;;;1.80;;
39846;SDS011;25517;52.422;10.782;2023-07-30T09:04:27;3.15;;;1.70;;
39846;SDS011;25517;52.422;10.782;2023-07-30T09:06:55;3.45;;;1.88;;
39846;SDS011;25517;52.422;10.782;2023-07-30T09:09:21;3.20;;;1.85;;
39846;SDS011;25517;52.422;10.782;2023-07-30T09:11:50;5.03;;;1.60;;
39846;SDS011;25517;52.422;10.782;2023-07-30T09:14:19;4.68;;;1.98;;
39846;SDS011;25517;52.422;10.782;2023-07-30T09:16:45;6.15;;;2.03;;
39846;SDS011;25517;52.422;10.782;2023-07-30T09:19:15;4.00;;;1.80;;
39846;SDS011;25517;52.422;10.782;2023-07-30T09:21:44;3.67;;;1.40;;
39846;SDS011;25517;52.422;10.782;2023-07-30T09:24:10;5.68;;;1.60;;
39846;SDS011;25517;52.422;10.782;2023-07-30T09:26:42;4.90;;;1.50;;
39846;SDS011;25517;52.422;10.782;2023-07-30T09:29:09;3.53;;;1.60;;
39846;SDS011;25517;52.422;10.782;2023-07-30T09:31:50;2.90;;;1.50;;
39846;SDS011;25517;52.422;10.782;2023-07-30T09:34:19;4.50;;;1.70;;
39846;SDS011;25517;52.422;10.782;2023-07-30T09:36:46;4.32;;;1.60;;
39846;SDS011;25517;52.422;10.782;2023-07-30T09:39:16;2.17;;;1.60;;
39846;SDS011;25517;52.422;10.782;2023-07-30T09:41:46;2.67;;;1.40;;
39846;SDS011;25517;52.422;10.782;2023-07-30T09:44:12;4.68;;;1.48;;
39846;SDS011;25517;52.422;10.782;2023-07-30T09:46:45;2.33;;;1.55;;
39846;SDS011;25517;52.422;10.782;2023-07-30T09:49:14;1.58;;;1.33;;
39846;SDS011;25517;52.422;10.782;2023-07-30T09:51:40;5.55;;;1.52;;
39846;SDS011;25517;52.422;10.782;2023-07-30T09:54:10;2.53;;;1.50;;
39846;SDS011;25517;52.422;10.782;2023-07-30T09:56:37;5.68;;;1.98;;
39846;SDS011;25517;52.422;10.782;2023-07-30T09:59:04;2.65;;;1.50;;
39846;SDS011;25517;52.422;10.782;2023-07-30T10:01:30;4.07;;;1.50;;
39846;SDS011;25517;52.422;10.782;2023-07-30T10:03:57;3.72;;;1.40;;
39846;SDS011;25517;52.422;10.782;2023-07-30T10:06:23;5.05;;;1.80;;
39846;SDS011;25517;52.422;10.782;2023-07-30T10:08:52;4.18;;;1.63;;
39846;SDS011;25517;52.422;10.782;2023-07-30T10:11:20;4.75;;;1.73;;
39846;SDS011;25517;52.422;10.782;2023-07-30T10:13:46;5.07;;;2.15;;
39846;SDS011;25517;52.422;10.782;2023-07-30T10:16:12;3.50;;;1.65;;
39846;SDS011;25517;52.422;10.782;2023-07-30T10:18:41;4.22;;;1.58;;
39846;SDS011;25517;52.422;10.782;2023-07-30T10:21:08;5.43;;;1.80;;
39846;SDS011;25517;52.422;10.782;2023-07-30T10:23:35;5.90;;;1.90;;
39846;SDS011;25517;52.422;10.782;2023-07-30T10:26:10;7.97;;;2.08;;
39846;SDS011;25517;52.422;10.782;2023-07-30T10:28:35;3.80;;;1.80;;
39846;SDS011;25517;52.422;10.782;2023-07-30T10:31:05;6.53;;;1.70;;
39846;SDS011;25517;52.422;10.782;2023-07-30T10:34:08;2.92;;;1.75;;
39846;SDS011;25517;52.422;10.782;2023-07-30T10:36:38;4.70;;;2.13;;
39846;SDS011;25517;52.422;10.782;2023-07-30T10:39:20;3.63;;;2.00;;
39846;SDS011;25517;52.422;10.782;2023-07-30T10:41:50;3.70;;;1.73;;
39846;SDS011;25517;52.422;10.782;2023-07-30T10:44:21;5.72;;;1.92;;
39846;SDS011;25517;52.422;10.782;2023-07-30T10:46:49;4.85;;;2.13;;
39846;SDS011;25517;52.422;10.782;2023-07-30T10:49:16;6.80;;;2.10;;
39846;SDS011;25517;52.422;10.782;2023-07-30T10:51:41;3.70;;;1.70;;
39846;SDS011;25517;52.422;10.782;2023-07-30T10:54:07;4.88;;;1.95;;
39846;SDS011;25517;52.422;10.782;2023-07-30T10:56:34;4.65;;;2.50;;
39846;SDS011;25517;52.422;10.782;2023-07-30T10:59:03;5.30;;;1.85;;
39846;SDS011;25517;52.422;10.782;2023-07-30T11:01:36;5.55;;;2.10;;
39846;SDS011;25517;52.422;10.782;2023-07-30T11:04:13;6.63;;;2.22;;
39846;SDS011;25517;52.422;10.782;2023-07-30T11:06:49;6.50;;;2.35;;
39846;SDS011;25517;52.422;10.782;2023-07-30T11:11:48;6.85;;;2.53;;
39846;SDS011;25517;52.422;10.782;2023-07-30T11:14:21;6.22;;;2.38;;
39846;SDS011;25517;52.422;10.782;2023-07-30T11:16:51;6.60;;;2.33;;
39846;SDS011;25517;52.422;10.782;2023-07-30T11:19:18;6.03;;;2.45;;
39846;SDS011;25517;52.422;10.782;2023-07-30T11:21:44;7.65;;;2.40;;
39846;SDS011;25517;52.422;10.782;2023-07-30T11:24:10;7.13;;;1.92;;
39846;SDS011;25517;52.422;10.782;2023-07-30T11:26:36;5.10;;;2.28;;
39846;SDS011;25517;52.422;10.782;2023-07-30T11:29:13;6.03;;;2.42;;
39846;SDS011;25517;52.422;10.782;2023-07-30T11:31:43;6.82;;;2.30;;
39846;SDS011;25517;52.422;10.782;2023-07-30T11:34:09;8.65;;;1.92;;
39846;SDS011;25517;52.422;10.782;2023-07-30T11:36:36;8.93;;;2.58;;
39846;SDS011;25517;52.422;10.782;2023-07-30T11:39:02;5.05;;;2.53;;
39846;SDS011;25517;52.422;10.782;2023-07-30T11:41:28;6.15;;;2.22;;
39846;SDS011;25517;52.422;10.782;2023-07-30T11:43:54;6.45;;;2.70;;
39846;SDS011;25517;52.422;10.782;2023-07-30T11:46:20;4.00;;;2.35;;
39846;SDS011;25517;52.422;10.782;2023-07-30T11:48:47;8.48;;;2.97;;
39846;SDS011;25517;52.422;10.782;2023-07-30T11:53:52;4.05;;;1.92;;
39846;SDS011;25517;52.422;10.782;2023-07-30T11:56:19;9.43;;;3.45;;
39846;SDS011;25517;52.422;10.782;2023-07-30T11:58:47;5.97;;;2.72;;
39846;SDS011;25517;52.422;10.782;2023-07-30T12:01:14;6.68;;;2.65;;
39846;SDS011;25517;52.422;10.782;2023-07-30T12:03:40;6.07;;;2.92;;
39846;SDS011;25517;52.422;10.782;2023-07-30T12:06:06;5.93;;;2.53;;
39846;SDS011;25517;52.422;10.782;2023-07-30T12:08:34;8.57;;;3.25;;
39846;SDS011;25517;52.422;10.782;2023-07-30T12:11:04;8.70;;;3.17;;
39846;SDS011;25517;52.422;10.782;2023-07-30T12:13:31;6.95;;;3.05;;
39846;SDS011;25517;52.422;10.782;2023-07-30T12:15:57;8.98;;;3.42;;
39846;SDS011;25517;52.422;10.782;2023-07-30T12:18:24;10.60;;;3.60;;
39846;SDS011;25517;52.422;10.782;2023-07-30T12:20:50;7.15;;;3.42;;
39846;SDS011;25517;52.422;10.782;2023-07-30T12:23:17;9.60;;;3.75;;
39846;SDS011;25517;52.422;10.782;2023-07-30T12:25:43;10.23;;;3.97;;
39846;SDS011;25517;52.422;10.782;2023-07-30T12:28:10;10.07;;;4.00;;
39846;SDS011;25517;52.422;10.782;2023-07-30T12:30:36;12.05;;;4.18;;
39846;SDS011;25517;52.422;10.782;2023-07-30T12:33:04;7.43;;;4.22;;
39846;SDS011;25517;52.422;10.782;2023-07-30T12:35:31;10.02;;;4.45;;
39846;SDS011;25517;52.422;10.782;2023-07-30T12:38:16;14.15;;;4.28;;
39846;SDS011;25517;52.422;10.782;2023-07-30T12:40:41;9.75;;;4.65;;
39846;SDS011;25517;52.422;10.782;2023-07-30T12:43:07;9.60;;;4.80;;
39846;SDS011;25517;52.422;10.782;2023-07-30T12:45:34;15.38;;;5.45;;
39846;SDS011;25517;52.422;10.782;2023-07-30T12:48:00;11.70;;;4.90;;
39846;SDS011;25517;52.422;10.782;2023-07-30T12:50:26;11.23;;;4.63;;
39846;SDS011;25517;52.422;10.782;2023-07-30T12:52:51;9.77;;;4.53;;
39846;SDS011;25517;52.422;10.782;2023-07-30T12:55:17;14.20;;;4.47;;
39846;SDS011;25517;52.422;10.782;2023-07-30T12:57:43;10.55;;;4.45;;
39846;SDS011;25517;52.422;10.782;2023-07-30T13:00:08;8.90;;;4.78;;
39846;SDS011;25517;52.422;10.782;2023-07-30T13:02:53;11.40;;;4.78;;
39846;SDS011;25517;52.422;10.782;2023-07-30T13:05:20;10.70;;;4.50;;
39846;SDS011;25517;52.422;10.782;2023-07-30T13:07:46;8.43;;;4.35;;
39846;SDS011;25517;52.422;10.782;2023-07-30T13:10:12;7.53;;;4.22;;
39846;SDS011;25517;52.422;10.782;2023-07-30T13:12:38;8.95;;;4.05;;
39846;SDS011;25517;52.422;10.782;2023-07-30T13:15:03;7.10;;;4.13;;
39846;SDS011;25517;52.422;10.782;2023-07-30T13:17:29;7.57;;;4.38;;
39846;SDS011;25517;52.422;10.782;2023-07-30T13:19:54;12.25;;;3.95;;
39846;SDS011;25517;52.422;10.782;2023-07-30T13:22:20;8.50;;;3.67;;
39846;SDS011;25517;52.422;10.782;2023-07-30T13:24:46;6.15;;;3.35;;
39846;SDS011;25517;52.422;10.782;2023-07-30T13:27:11;6.63;;;3.72;;
39846;SDS011;25517;52.422;10.782;2023-07-30T13:29:37;5.03;;;3.20;;
39846;SDS011;25517;52.422;10.782;2023-07-30T13:32:02;11.13;;;3.40;;
39846;SDS011;25517;52.422;10.782;2023-07-30T13:34:28;9.07;;;3.75;;
39846;SDS011;25517;52.422;10.782;2023-07-30T13:36:53;6.50;;;3.67;;
39846;SDS011;25517;52.422;10.782;2023-07-30T13:39:19;9.23;;;3.38;;
39846;SDS011;25517;52.422;10.782;2023-07-30T13:41:44;5.90;;;3.40;;
39846;SDS011;25517;52.422;10.782;2023-07-30T13:44:10;6.53;;;3.58;;
39846;SDS011;25517;52.422;10.782;2023-07-30T13:46:36;10.63;;;4.10;;
39846;SDS011;25517;52.422;10.782;2023-07-30T13:49:02;8.55;;;4.15;;
39846;SDS011;25517;52.422;10.782;2023-07-30T13:51:28;7.68;;;4.07;;
39846;SDS011;25517;52.422;10.782;2023-07-30T13:53:57;8.65;;;3.85;;
39846;SDS011;25517;52.422;10.782;2023-07-30T13:56:27;10.18;;;3.90;;
39846;SDS011;25517;52.422;10.782;2023-07-30T13:58:53;6.88;;;3.47;;
39846;SDS011;25517;52.422;10.782;2023-07-30T14:01:18;8.13;;;3.72;;
39846;SDS011;25517;52.422;10.782;2023-07-30T14:03:44;9.68;;;4.13;;
39846;SDS011;25517;52.422;10.782;2023-07-30T14:06:10;10.60;;;3.40;;
39846;SDS011;25517;52.422;10.782;2023-07-30T14:08:36;8.95;;;3.83;;
39846;SDS011;25517;52.422;10.782;2023-07-30T14:11:01;6.95;;;3.28;;
39846;SDS011;25517;52.422;10.782;2023-07-30T14:13:27;5.63;;;3.17;;
39846;SDS011;25517;52.422;10.782;2023-07-30T14:15:53;6.60;;;3.25;;
39846;SDS011;25517;52.422;10.782;2023-07-30T14:18:18;9.32;;;3.85;;
39846;SDS011;25517;52.422;10.782;2023-07-30T14:20:44;11.50;;;4.20;;
39846;SDS011;25517;52.422;10.782;2023-07-30T14:23:09;7.60;;;3.55;;
39846;SDS011;25517;52.422;10.782;2023-07-30T14:25:36;11.40;;;4.78;;
39846;SDS011;25517;52.422;10.782;2023-07-30T14:28:02;7.80;;;3.42;;
39846;SDS011;25517;52.422;10.782;2023-07-30T14:30:28;10.40;;;3.85;;
39846;SDS011;25517;52.422;10.782;2023-07-30T14:32:53;8.80;;;3.80;;
39846;SDS011;25517;52.422;10.782;2023-07-30T14:35:19;8.60;;;3.80;;